sensor_id;sensor_type;location;lat;lon;timestamp;temperature;humidity
76102;SHT30;64830;46.910;6.354;2023-06-22T00:01:54;18.42;70.52
76102;SHT30;64830;46.910;6.354;2023-06-22T00:04:19;18.35;70.66
76102;SHT30;64830;46.910;6.354;2023-06-22T00:06:45;18.32;70.75
76102;SHT30;64830;46.910;6.354;2023-06-22T00:09:10;18.31;70.85
76102;SHT30;64830;46.910;6.354;2023-06-22T00:11:39;18.32;70.93
76102;SHT30;64830;46.910;6.354;2023-06-22T00:14:04;18.31;70.85
76102;SHT30;64830;46.910;6.354;2023-06-22T00:16:33;18.29;71.00
76102;SHT30;64830;46.910;6.354;2023-06-22T00:18:58;18.28;70.76
76102;SHT30;64830;46.910;6.354;2023-06-22T00:21:26;18.32;70.63
76102;SHT30;64830;46.910;6.354;2023-06-22T00:23:52;18.29;70.61
76102;SHT30;64830;46.910;6.354;2023-06-22T00:26:17;18.28;70.64
76102;SHT30;64830;46.910;6.354;2023-06-22T00:28:43;18.28;70.70
76102;SHT30;64830;46.910;6.354;2023-06-22T00:31:08;18.24;70.80
76102;SHT30;64830;46.910;6.354;2023-06-22T00:33:34;18.22;70.67
76102;SHT30;64830;46.910;6.354;2023-06-22T00:35:59;18.18;70.75
76102;SHT30;64830;46.910;6.354;2023-06-22T00:38:24;18.16;70.86
76102;SHT30;64830;46.910;6.354;2023-06-22T00:40:50;18.16;70.72
76102;SHT30;64830;46.910;6.354;2023-06-22T00:43:15;18.15;70.69
76102;SHT30;64830;46.910;6.354;2023-06-22T00:45:41;18.16;70.52
76102;SHT30;64830;46.910;6.354;2023-06-22T00:48:06;18.11;70.68
76102;SHT30;64830;46.910;6.354;2023-06-22T00:50:33;18.05;70.84
76102;SHT30;64830;46.910;6.354;2023-06-22T00:53:08;18.02;70.85
76102;SHT30;64830;46.910;6.354;2023-06-22T00:55:38;18.00;70.97
76102;SHT30;64830;46.910;6.354;2023-06-22T00:58:09;18.00;70.80
76102;SHT30;64830;46.910;6.354;2023-06-22T01:00:36;18.04;70.84
76102;SHT30;64830;46.910;6.354;2023-06-22T01:03:02;18.04;70.71
76102;SHT30;64830;46.910;6.354;2023-06-22T01:05:27;18.04;70.86
76102;SHT30;64830;46.910;6.354;2023-06-22T01:13:39;17.96;71.18
76102;SHT30;64830;46.910;6.354;2023-06-22T01:16:31;17.88;71.11
76102;SHT30;64830;46.910;6.354;2023-06-22T01:19:01;17.88;71.17
76102;SHT30;64830;46.910;6.354;2023-06-22T01:21:31;17.91;71.15
76102;SHT30;64830;46.910;6.354;2023-06-22T01:24:23;17.93;71.23
76102;SHT30;64830;46.910;6.354;2023-06-22T01:29:31;17.98;70.94
76102;SHT30;64830;46.910;6.354;2023-06-22T01:31:59;17.97;71.06
76102;SHT30;64830;46.910;6.354;2023-06-22T01:34:25;17.97;71.11
76102;SHT30;64830;46.910;6.354;2023-06-22T01:36:51;17.98;71.00
76102;SHT30;64830;46.910;6.354;2023-06-22T01:39:18;17.98;70.89
76102;SHT30;64830;46.910;6.354;2023-06-22T01:41:45;18.01;70.89
76102;SHT30;64830;46.910;6.354;2023-06-22T01:44:12;18.01;70.61
76102;SHT30;64830;46.910;6.354;2023-06-22T01:46:38;18.01;70.65
76102;SHT30;64830;46.910;6.354;2023-06-22T01:49:05;18.01;70.42
76102;SHT30;64830;46.910;6.354;2023-06-22T01:51:31;18.02;70.61
76102;SHT30;64830;46.910;6.354;2023-06-22T01:53:56;18.02;70.62
76102;SHT30;64830;46.910;6.354;2023-06-22T01:56:22;18.04;70.46
76102;SHT30;64830;46.910;6.354;2023-06-22T01:59:39;18.07;70.38
76102;SHT30;64830;46.910;6.354;2023-06-22T02:02:09;18.05;70.55
76102;SHT30;64830;46.910;6.354;2023-06-22T02:07:13;18.05;70.82
76102;SHT30;64830;46.910;6.354;2023-06-22T02:09:41;18.05;70.54
76102;SHT30;64830;46.910;6.354;2023-06-22T02:12:08;18.07;70.63
76102;SHT30;64830;46.910;6.354;2023-06-22T02:14:36;18.05;70.57
76102;SHT30;64830;46.910;6.354;2023-06-22T02:17:02;18.07;70.76
76102;SHT30;64830;46.910;6.354;2023-06-22T02:19:27;18.07;71.89
76102;SHT30;64830;46.910;6.354;2023-06-22T02:21:58;17.96;71.88
76102;SHT30;64830;46.910;6.354;2023-06-22T02:24:23;17.88;72.35
76102;SHT30;64830;46.910;6.354;2023-06-22T02:26:49;17.83;72.00
76102;SHT30;64830;46.910;6.354;2023-06-22T02:29:14;17.81;72.55
76102;SHT30;64830;46.910;6.354;2023-06-22T02:31:40;17.77;72.63
76102;SHT30;64830;46.910;6.354;2023-06-22T02:34:05;17.73;72.71
76102;SHT30;64830;46.910;6.354;2023-06-22T02:36:30;17.71;72.57
76102;SHT30;64830;46.910;6.354;2023-06-22T02:38:58;17.69;72.64
76102;SHT30;64830;46.910;6.354;2023-06-22T02:41:26;17.69;72.66
76102;SHT30;64830;46.910;6.354;2023-06-22T02:43:52;17.70;72.32
76102;SHT30;64830;46.910;6.354;2023-06-22T02:46:17;17.70;72.17
76102;SHT30;64830;46.910;6.354;2023-06-22T02:48:43;17.70;72.01
76102;SHT30;64830;46.910;6.354;2023-06-22T02:51:08;17.76;71.81
76102;SHT30;64830;46.910;6.354;2023-06-22T02:53:34;17.77;71.69
76102;SHT30;64830;46.910;6.354;2023-06-22T02:56:01;17.76;71.44
76102;SHT30;64830;46.910;6.354;2023-06-22T02:58:28;17.80;71.28
76102;SHT30;64830;46.910;6.354;2023-06-22T03:00:53;17.80;71.33
76102;SHT30;64830;46.910;6.354;2023-06-22T03:03:19;17.84;71.35
76102;SHT30;64830;46.910;6.354;2023-06-22T03:05:45;17.87;71.24
76102;SHT30;64830;46.910;6.354;2023-06-22T03:08:11;17.88;71.02
76102;SHT30;64830;46.910;6.354;2023-06-22T03:10:36;17.91;70.95
76102;SHT30;64830;46.910;6.354;2023-06-22T03:13:01;17.94;70.96
76102;SHT30;64830;46.910;6.354;2023-06-22T03:15:27;17.96;70.92
76102;SHT30;64830;46.910;6.354;2023-06-22T03:17:54;17.98;70.74
76102;SHT30;64830;46.910;6.354;2023-06-22T03:20:20;17.98;70.89
76102;SHT30;64830;46.910;6.354;2023-06-22T03:22:45;17.96;70.93
76102;SHT30;64830;46.910;6.354;2023-06-22T03:25:11;18.00;71.36
76102;SHT30;64830;46.910;6.354;2023-06-22T03:27:39;17.96;71.22
76102;SHT30;64830;46.910;6.354;2023-06-22T03:30:06;17.94;71.36
76102;SHT30;64830;46.910;6.354;2023-06-22T03:32:32;17.96;71.43
76102;SHT30;64830;46.910;6.354;2023-06-22T03:34:57;17.94;71.43
76102;SHT30;64830;46.910;6.354;2023-06-22T03:37:24;17.91;71.39
76102;SHT30;64830;46.910;6.354;2023-06-22T03:39:51;17.93;71.52
76102;SHT30;64830;46.910;6.354;2023-06-22T03:42:16;17.90;72.47
76102;SHT30;64830;46.910;6.354;2023-06-22T03:44:41;17.87;72.43
76102;SHT30;64830;46.910;6.354;2023-06-22T03:47:07;17.87;72.23
76102;SHT30;64830;46.910;6.354;2023-06-22T03:49:33;17.87;72.33
76102;SHT30;64830;46.910;6.354;2023-06-22T03:52:00;17.87;72.20
76102;SHT30;64830;46.910;6.354;2023-06-22T03:54:26;17.88;71.88
76102;SHT30;64830;46.910;6.354;2023-06-22T03:56:51;17.90;72.50
76102;SHT30;64830;46.910;6.354;2023-06-22T03:59:17;17.88;72.23
76102;SHT30;64830;46.910;6.354;2023-06-22T04:01:42;17.91;71.97
76102;SHT30;64830;46.910;6.354;2023-06-22T04:04:08;17.94;71.95
76102;SHT30;64830;46.910;6.354;2023-06-22T04:06:33;17.97;72.03
76102;SHT30;64830;46.910;6.354;2023-06-22T04:08:59;18.00;72.20
76102;SHT30;64830;46.910;6.354;2023-06-22T04:11:26;18.00;72.90
76102;SHT30;64830;46.910;6.354;2023-06-22T04:13:51;18.00;72.55
76102;SHT30;64830;46.910;6.354;2023-06-22T04:16:17;17.98;72.59
76102;SHT30;64830;46.910;6.354;2023-06-22T04:18:42;17.93;72.58
76102;SHT30;64830;46.910;6.354;2023-06-22T04:21:08;17.93;72.85
76102;SHT30;64830;46.910;6.354;2023-06-22T04:23:33;17.91;73.10
76102;SHT30;64830;46.910;6.354;2023-06-22T04:25:58;17.96;73.01
76102;SHT30;64830;46.910;6.354;2023-06-22T04:28:27;17.96;73.14
76102;SHT30;64830;46.910;6.354;2023-06-22T04:30:52;17.96;73.38
76102;SHT30;64830;46.910;6.354;2023-06-22T04:33:17;18.01;73.18
76102;SHT30;64830;46.910;6.354;2023-06-22T04:35:46;18.09;72.83
76102;SHT30;64830;46.910;6.354;2023-06-22T04:38:12;18.16;72.81
76102;SHT30;64830;46.910;6.354;2023-06-22T04:40:41;18.25;72.57
76102;SHT30;64830;46.910;6.354;2023-06-22T04:43:06;18.35;72.41
76102;SHT30;64830;46.910;6.354;2023-06-22T04:45:33;18.39;72.59
76102;SHT30;64830;46.910;6.354;2023-06-22T04:47:58;18.43;72.26
76102;SHT30;64830;46.910;6.354;2023-06-22T04:50:24;18.43;72.48
76102;SHT30;64830;46.910;6.354;2023-06-22T04:52:50;18.43;72.48
76102;SHT30;64830;46.910;6.354;2023-06-22T04:55:16;18.48;72.73
76102;SHT30;64830;46.910;6.354;2023-06-22T04:57:45;18.53;72.83
76102;SHT30;64830;46.910;6.354;2023-06-22T05:00:23;18.59;72.79
76102;SHT30;64830;46.910;6.354;2023-06-22T05:02:49;18.67;72.88
76102;SHT30;64830;46.910;6.354;2023-06-22T05:05:14;18.76;72.76
76102;SHT30;64830;46.910;6.354;2023-06-22T05:07:45;18.87;72.13
76102;SHT30;64830;46.910;6.354;2023-06-22T05:10:11;18.97;72.01
76102;SHT30;64830;46.910;6.354;2023-06-22T05:12:41;19.07;71.94
76102;SHT30;64830;46.910;6.354;2023-06-22T05:15:07;19.14;71.86
76102;SHT30;64830;46.910;6.354;2023-06-22T05:17:33;19.23;72.73
76102;SHT30;64830;46.910;6.354;2023-06-22T05:19:58;19.26;73.37
76102;SHT30;64830;46.910;6.354;2023-06-22T05:22:24;19.31;72.72
76102;SHT30;64830;46.910;6.354;2023-06-22T05:24:49;19.35;72.36
76102;SHT30;64830;46.910;6.354;2023-06-22T05:27:15;19.40;72.40
76102;SHT30;64830;46.910;6.354;2023-06-22T05:29:41;19.45;72.28
76102;SHT30;64830;46.910;6.354;2023-06-22T05:32:08;19.52;71.93
76102;SHT30;64830;46.910;6.354;2023-06-22T05:34:33;19.52;71.62
76102;SHT30;64830;46.910;6.354;2023-06-22T05:36:59;19.52;71.49
76102;SHT30;64830;46.910;6.354;2023-06-22T05:39:24;19.55;71.41
76102;SHT30;64830;46.910;6.354;2023-06-22T05:41:50;19.59;71.61
76102;SHT30;64830;46.910;6.354;2023-06-22T05:44:16;19.63;71.44
76102;SHT30;64830;46.910;6.354;2023-06-22T05:46:43;19.65;71.29
76102;SHT30;64830;46.910;6.354;2023-06-22T05:49:13;19.69;71.44
76102;SHT30;64830;46.910;6.354;2023-06-22T05:51:39;19.67;71.30
76102;SHT30;64830;46.910;6.354;2023-06-22T05:54:05;19.70;71.21
76102;SHT30;64830;46.910;6.354;2023-06-22T05:56:30;19.67;71.14
76102;SHT30;64830;46.910;6.354;2023-06-22T05:58:56;19.67;71.36
76102;SHT30;64830;46.910;6.354;2023-06-22T06:01:22;19.65;71.38
76102;SHT30;64830;46.910;6.354;2023-06-22T06:03:47;19.67;71.40
76102;SHT30;64830;46.910;6.354;2023-06-22T06:06:15;19.63;71.40
76102;SHT30;64830;46.910;6.354;2023-06-22T06:08:40;19.67;71.53
76102;SHT30;64830;46.910;6.354;2023-06-22T06:11:06;19.69;71.45
76102;SHT30;64830;46.910;6.354;2023-06-22T06:13:32;19.71;71.56
76102;SHT30;64830;46.910;6.354;2023-06-22T06:15:57;19.74;71.60
76102;SHT30;64830;46.910;6.354;2023-06-22T06:18:23;19.80;71.62
76102;SHT30;64830;46.910;6.354;2023-06-22T06:20:48;19.83;71.59
76102;SHT30;64830;46.910;6.354;2023-06-22T06:23:14;19.90;71.59
76102;SHT30;64830;46.910;6.354;2023-06-22T06:25:39;19.95;71.92
76102;SHT30;64830;46.910;6.354;2023-06-22T06:28:05;20.01;71.74
76102;SHT30;64830;46.910;6.354;2023-06-22T06:30:30;20.08;71.60
76102;SHT30;64830;46.910;6.354;2023-06-22T06:32:56;20.18;71.40
76102;SHT30;64830;46.910;6.354;2023-06-22T06:35:21;20.28;71.14
76102;SHT30;64830;46.910;6.354;2023-06-22T06:37:50;20.38;71.02
76102;SHT30;64830;46.910;6.354;2023-06-22T06:40:17;20.45;71.04
76102;SHT30;64830;46.910;6.354;2023-06-22T06:42:47;20.53;70.80
76102;SHT30;64830;46.910;6.354;2023-06-22T06:45:18;20.60;70.76
76102;SHT30;64830;46.910;6.354;2023-06-22T06:47:45;20.70;70.68
76102;SHT30;64830;46.910;6.354;2023-06-22T06:50:11;20.79;70.40
76102;SHT30;64830;46.910;6.354;2023-06-22T06:52:37;20.85;70.42
76102;SHT30;64830;46.910;6.354;2023-06-22T06:55:02;20.91;70.27
76102;SHT30;64830;46.910;6.354;2023-06-22T06:57:41;21.00;70.37
76102;SHT30;64830;46.910;6.354;2023-06-22T07:00:08;21.01;70.09
76102;SHT30;64830;46.910;6.354;2023-06-22T07:02:43;21.07;69.96
76102;SHT30;64830;46.910;6.354;2023-06-22T07:05:09;21.14;69.65
76102;SHT30;64830;46.910;6.354;2023-06-22T07:07:35;21.17;69.62
76102;SHT30;64830;46.910;6.354;2023-06-22T07:10:01;21.21;69.15
76102;SHT30;64830;46.910;6.354;2023-06-22T07:12:27;21.22;68.81
76102;SHT30;64830;46.910;6.354;2023-06-22T07:14:53;21.28;69.05
76102;SHT30;64830;46.910;6.354;2023-06-22T07:17:19;21.31;69.45
76102;SHT30;64830;46.910;6.354;2023-06-22T07:19:47;21.36;68.88
76102;SHT30;64830;46.910;6.354;2023-06-22T07:22:12;21.41;68.75
76102;SHT30;64830;46.910;6.354;2023-06-22T07:24:37;21.52;69.01
76102;SHT30;64830;46.910;6.354;2023-06-22T07:27:03;21.63;68.72
76102;SHT30;64830;46.910;6.354;2023-06-22T07:29:30;21.77;68.59
76102;SHT30;64830;46.910;6.354;2023-06-22T07:31:56;21.93;68.18
76102;SHT30;64830;46.910;6.354;2023-06-22T07:34:22;22.08;67.70
76102;SHT30;64830;46.910;6.354;2023-06-22T07:36:47;22.22;66.93
76102;SHT30;64830;46.910;6.354;2023-06-22T07:39:13;22.36;66.09
76102;SHT30;64830;46.910;6.354;2023-06-22T07:41:40;22.46;65.24
76102;SHT30;64830;46.910;6.354;2023-06-22T07:44:08;22.57;65.01
76102;SHT30;64830;46.910;6.354;2023-06-22T07:46:33;22.69;64.69
76102;SHT30;64830;46.910;6.354;2023-06-22T07:48:59;22.83;64.12
76102;SHT30;64830;46.910;6.354;2023-06-22T07:51:25;23.04;64.84
76102;SHT30;64830;46.910;6.354;2023-06-22T07:53:50;23.33;63.35
76102;SHT30;64830;46.910;6.354;2023-06-22T07:56:16;23.53;62.77
76102;SHT30;64830;46.910;6.354;2023-06-22T07:58:45;23.71;59.71
76102;SHT30;64830;46.910;6.354;2023-06-22T08:01:11;23.85;59.16
76102;SHT30;64830;46.910;6.354;2023-06-22T08:03:37;23.97;57.71
76102;SHT30;64830;46.910;6.354;2023-06-22T08:06:03;24.08;56.45
76102;SHT30;64830;46.910;6.354;2023-06-22T08:08:28;24.14;57.12
76102;SHT30;64830;46.910;6.354;2023-06-22T08:10:54;24.22;57.04
76102;SHT30;64830;46.910;6.354;2023-06-22T08:13:19;24.32;56.85
76102;SHT30;64830;46.910;6.354;2023-06-22T08:15:45;24.49;56.58
76102;SHT30;64830;46.910;6.354;2023-06-22T08:18:10;24.74;56.21
76102;SHT30;64830;46.910;6.354;2023-06-22T08:20:36;24.98;56.98
76102;SHT30;64830;46.910;6.354;2023-06-22T08:23:01;25.21;55.10
76102;SHT30;64830;46.910;6.354;2023-06-22T08:25:32;25.41;54.91
76102;SHT30;64830;46.910;6.354;2023-06-22T08:27:58;25.61;54.41
76102;SHT30;64830;46.910;6.354;2023-06-22T08:30:23;25.76;53.16
76102;SHT30;64830;46.910;6.354;2023-06-22T08:32:49;25.94;53.62
76102;SHT30;64830;46.910;6.354;2023-06-22T08:35:14;26.18;53.04
76102;SHT30;64830;46.910;6.354;2023-06-22T08:37:41;26.32;52.36
76102;SHT30;64830;46.910;6.354;2023-06-22T08:40:08;26.42;52.22
76102;SHT30;64830;46.910;6.354;2023-06-22T08:42:39;26.57;52.15
76102;SHT30;64830;46.910;6.354;2023-06-22T08:45:06;26.64;50.79
76102;SHT30;64830;46.910;6.354;2023-06-22T08:47:31;26.69;50.30
76102;SHT30;64830;46.910;6.354;2023-06-22T08:49:56;26.68;50.46
76102;SHT30;64830;46.910;6.354;2023-06-22T08:52:23;26.68;50.00
76102;SHT30;64830;46.910;6.354;2023-06-22T08:54:48;26.68;50.80
76102;SHT30;64830;46.910;6.354;2023-06-22T08:57:14;26.76;50.21
76102;SHT30;64830;46.910;6.354;2023-06-22T08:59:39;26.76;47.55
76102;SHT30;64830;46.910;6.354;2023-06-22T09:02:06;26.83;48.02
76102;SHT30;64830;46.910;6.354;2023-06-22T09:04:31;26.96;47.23
76102;SHT30;64830;46.910;6.354;2023-06-22T09:07:00;27.05;47.41
76102;SHT30;64830;46.910;6.354;2023-06-22T09:09:25;27.07;47.03
76102;SHT30;64830;46.910;6.354;2023-06-22T09:11:51;27.07;46.95
76102;SHT30;64830;46.910;6.354;2023-06-22T09:14:16;27.11;47.68
76102;SHT30;64830;46.910;6.354;2023-06-22T09:16:42;27.22;47.63
76102;SHT30;64830;46.910;6.354;2023-06-22T09:19:07;27.34;46.43
76102;SHT30;64830;46.910;6.354;2023-06-22T09:21:33;27.42;46.76
76102;SHT30;64830;46.910;6.354;2023-06-22T09:23:58;27.39;46.30
76102;SHT30;64830;46.910;6.354;2023-06-22T09:26:24;27.41;45.37
76102;SHT30;64830;46.910;6.354;2023-06-22T09:28:49;27.43;46.08
76102;SHT30;64830;46.910;6.354;2023-06-22T09:31:15;27.53;46.08
76102;SHT30;64830;46.910;6.354;2023-06-22T09:33:42;27.65;45.55
76102;SHT30;64830;46.910;6.354;2023-06-22T09:36:07;27.66;45.38
76102;SHT30;64830;46.910;6.354;2023-06-22T09:38:36;27.63;45.36
76102;SHT30;64830;46.910;6.354;2023-06-22T09:41:02;27.55;46.01
76102;SHT30;64830;46.910;6.354;2023-06-22T09:43:28;27.53;46.52
76102;SHT30;64830;46.910;6.354;2023-06-22T09:45:53;27.43;44.86
76102;SHT30;64830;46.910;6.354;2023-06-22T09:48:19;27.38;43.44
76102;SHT30;64830;46.910;6.354;2023-06-22T09:50:44;27.30;44.11
76102;SHT30;64830;46.910;6.354;2023-06-22T09:53:09;27.25;44.18
76102;SHT30;64830;46.910;6.354;2023-06-22T09:55:35;27.24;44.22
76102;SHT30;64830;46.910;6.354;2023-06-22T09:58:00;27.18;44.34
76102;SHT30;64830;46.910;6.354;2023-06-22T10:00:26;27.15;44.05
76102;SHT30;64830;46.910;6.354;2023-06-22T10:02:52;27.16;41.01
76102;SHT30;64830;46.910;6.354;2023-06-22T10:05:17;27.12;42.96
76102;SHT30;64830;46.910;6.354;2023-06-22T10:07:43;27.12;42.59
76102;SHT30;64830;46.910;6.354;2023-06-22T10:10:10;27.08;41.64
76102;SHT30;64830;46.910;6.354;2023-06-22T10:12:36;27.03;41.84
76102;SHT30;64830;46.910;6.354;2023-06-22T10:15:01;26.98;42.13
76102;SHT30;64830;46.910;6.354;2023-06-22T10:17:26;26.93;41.08
76102;SHT30;64830;46.910;6.354;2023-06-22T10:19:52;26.88;40.89
76102;SHT30;64830;46.910;6.354;2023-06-22T10:22:17;26.83;41.10
76102;SHT30;64830;46.910;6.354;2023-06-22T10:24:43;26.82;41.67
76102;SHT30;64830;46.910;6.354;2023-06-22T10:27:12;26.88;41.66
76102;SHT30;64830;46.910;6.354;2023-06-22T10:29:39;26.96;44.89
76102;SHT30;64830;46.910;6.354;2023-06-22T10:32:04;27.01;48.63
76102;SHT30;64830;46.910;6.354;2023-06-22T10:34:30;27.10;49.54
76102;SHT30;64830;46.910;6.354;2023-06-22T10:36:55;27.01;49.32
76102;SHT30;64830;46.910;6.354;2023-06-22T10:39:21;26.96;50.38
76102;SHT30;64830;46.910;6.354;2023-06-22T10:41:46;26.91;51.04
76102;SHT30;64830;46.910;6.354;2023-06-22T10:44:12;26.87;52.26
76102;SHT30;64830;46.910;6.354;2023-06-22T10:46:38;26.79;52.43
76102;SHT30;64830;46.910;6.354;2023-06-22T10:49:04;26.73;52.38
76102;SHT30;64830;46.910;6.354;2023-06-22T10:51:30;26.66;53.02
76102;SHT30;64830;46.910;6.354;2023-06-22T10:53:56;26.43;53.16
76102;SHT30;64830;46.910;6.354;2023-06-22T10:56:22;26.26;53.36
76102;SHT30;64830;46.910;6.354;2023-06-22T10:58:47;26.07;54.42
76102;SHT30;64830;46.910;6.354;2023-06-22T11:01:13;25.87;55.22
76102;SHT30;64830;46.910;6.354;2023-06-22T11:03:39;25.67;55.61
76102;SHT30;64830;46.910;6.354;2023-06-22T11:06:04;25.38;56.79
76102;SHT30;64830;46.910;6.354;2023-06-22T11:08:29;25.11;57.44
76102;SHT30;64830;46.910;6.354;2023-06-22T11:10:55;24.93;57.68
76102;SHT30;64830;46.910;6.354;2023-06-22T11:13:20;24.86;57.88
76102;SHT30;64830;46.910;6.354;2023-06-22T11:15:46;24.81;58.21
76102;SHT30;64830;46.910;6.354;2023-06-22T11:18:11;24.79;58.48
76102;SHT30;64830;46.910;6.354;2023-06-22T11:20:36;24.66;57.96
76102;SHT30;64830;46.910;6.354;2023-06-22T11:23:07;24.59;57.83
76102;SHT30;64830;46.910;6.354;2023-06-22T11:25:33;24.51;58.25
76102;SHT30;64830;46.910;6.354;2023-06-22T11:28:03;24.42;59.31
76102;SHT30;64830;46.910;6.354;2023-06-22T11:30:29;24.33;59.42
76102;SHT30;64830;46.910;6.354;2023-06-22T11:32:56;24.35;59.57
76102;SHT30;64830;46.910;6.354;2023-06-22T11:35:22;24.25;60.07
76102;SHT30;64830;46.910;6.354;2023-06-22T11:37:47;24.07;60.13
76102;SHT30;64830;46.910;6.354;2023-06-22T11:40:12;23.94;61.42
76102;SHT30;64830;46.910;6.354;2023-06-22T11:42:38;23.77;62.88
76102;SHT30;64830;46.910;6.354;2023-06-22T11:45:05;23.63;62.82
76102;SHT30;64830;46.910;6.354;2023-06-22T11:47:30;23.53;62.53
76102;SHT30;64830;46.910;6.354;2023-06-22T11:49:55;23.48;62.16
76102;SHT30;64830;46.910;6.354;2023-06-22T11:52:21;23.52;62.25
76102;SHT30;64830;46.910;6.354;2023-06-22T11:54:46;23.62;62.86
76102;SHT30;64830;46.910;6.354;2023-06-22T11:57:12;23.57;63.14
76102;SHT30;64830;46.910;6.354;2023-06-22T11:59:37;23.60;63.14
76102;SHT30;64830;46.910;6.354;2023-06-22T12:02:03;23.70;62.70
76102;SHT30;64830;46.910;6.354;2023-06-22T12:04:30;23.84;62.62
76102;SHT30;64830;46.910;6.354;2023-06-22T12:06:55;24.00;62.37
76102;SHT30;64830;46.910;6.354;2023-06-22T12:09:21;24.12;61.67
76102;SHT30;64830;46.910;6.354;2023-06-22T12:11:46;24.14;61.91
76102;SHT30;64830;46.910;6.354;2023-06-22T12:14:12;24.21;62.16
76102;SHT30;64830;46.910;6.354;2023-06-22T12:16:37;24.46;61.95
76102;SHT30;64830;46.910;6.354;2023-06-22T12:19:03;24.69;61.36
76102;SHT30;64830;46.910;6.354;2023-06-22T12:21:28;24.98;59.47
76102;SHT30;64830;46.910;6.354;2023-06-22T12:23:54;25.04;58.85
76102;SHT30;64830;46.910;6.354;2023-06-22T12:26:19;25.08;58.86
76102;SHT30;64830;46.910;6.354;2023-06-22T12:28:44;25.10;58.85
76102;SHT30;64830;46.910;6.354;2023-06-22T12:31:10;25.08;59.13
76102;SHT30;64830;46.910;6.354;2023-06-22T12:33:35;25.07;58.03
76102;SHT30;64830;46.910;6.354;2023-06-22T12:36:01;25.07;56.70
76102;SHT30;64830;46.910;6.354;2023-06-22T12:38:26;25.00;57.76
76102;SHT30;64830;46.910;6.354;2023-06-22T12:40:52;25.07;57.13
76102;SHT30;64830;46.910;6.354;2023-06-22T12:43:18;25.24;56.36
76102;SHT30;64830;46.910;6.354;2023-06-22T12:45:43;25.28;56.36
76102;SHT30;64830;46.910;6.354;2023-06-22T12:48:09;25.38;56.60
76102;SHT30;64830;46.910;6.354;2023-06-22T12:50:34;25.58;57.33
76102;SHT30;64830;46.910;6.354;2023-06-22T12:53:00;25.69;55.94
76102;SHT30;64830;46.910;6.354;2023-06-22T12:55:27;25.69;56.75
76102;SHT30;64830;46.910;6.354;2023-06-22T12:57:53;25.69;56.90
76102;SHT30;64830;46.910;6.354;2023-06-22T13:00:18;25.67;56.73
76102;SHT30;64830;46.910;6.354;2023-06-22T13:02:45;25.61;56.81
76102;SHT30;64830;46.910;6.354;2023-06-22T13:05:10;25.50;56.60
76102;SHT30;64830;46.910;6.354;2023-06-22T13:07:36;25.43;56.00
76102;SHT30;64830;46.910;6.354;2023-06-22T13:10:01;25.32;56.57
76102;SHT30;64830;46.910;6.354;2023-06-22T13:12:27;25.35;56.90
76102;SHT30;64830;46.910;6.354;2023-06-22T13:14:52;25.35;55.71
76102;SHT30;64830;46.910;6.354;2023-06-22T13:17:18;25.39;55.89
76102;SHT30;64830;46.910;6.354;2023-06-22T13:19:43;25.46;56.35
76102;SHT30;64830;46.910;6.354;2023-06-22T13:22:30;25.72;55.36
76102;SHT30;64830;46.910;6.354;2023-06-22T13:24:56;25.84;54.44
76102;SHT30;64830;46.910;6.354;2023-06-22T13:27:22;25.80;54.39
76102;SHT30;64830;46.910;6.354;2023-06-22T13:29:48;25.74;54.27
76102;SHT30;64830;46.910;6.354;2023-06-22T13:32:13;25.59;54.99
76102;SHT30;64830;46.910;6.354;2023-06-22T13:34:38;25.56;56.04
76102;SHT30;64830;46.910;6.354;2023-06-22T13:37:04;25.59;56.32
76102;SHT30;64830;46.910;6.354;2023-06-22T13:39:30;25.63;55.86
76102;SHT30;64830;46.910;6.354;2023-06-22T13:41:56;25.66;55.87
76102;SHT30;64830;46.910;6.354;2023-06-22T13:44:21;25.76;54.99
76102;SHT30;64830;46.910;6.354;2023-06-22T13:46:47;25.90;54.41
76102;SHT30;64830;46.910;6.354;2023-06-22T13:49:13;26.00;53.88
76102;SHT30;64830;46.910;6.354;2023-06-22T13:51:38;26.11;53.78
76102;SHT30;64830;46.910;6.354;2023-06-22T13:54:04;26.22;52.91
76102;SHT30;64830;46.910;6.354;2023-06-22T13:56:29;26.34;53.45
76102;SHT30;64830;46.910;6.354;2023-06-22T13:58:54;26.38;50.58
76102;SHT30;64830;46.910;6.354;2023-06-22T14:01:20;26.42;48.85
76102;SHT30;64830;46.910;6.354;2023-06-22T14:03:47;26.35;47.22
76102;SHT30;64830;46.910;6.354;2023-06-22T14:06:13;26.36;46.92
76102;SHT30;64830;46.910;6.354;2023-06-22T14:08:38;26.36;44.52
76102;SHT30;64830;46.910;6.354;2023-06-22T14:11:03;26.31;44.29
76102;SHT30;64830;46.910;6.354;2023-06-22T14:13:29;26.32;45.73
76102;SHT30;64830;46.910;6.354;2023-06-22T14:15:55;26.32;46.20
76102;SHT30;64830;46.910;6.354;2023-06-22T14:18:20;26.41;46.48
76102;SHT30;64830;46.910;6.354;2023-06-22T14:20:47;26.53;47.27
76102;SHT30;64830;46.910;6.354;2023-06-22T14:23:13;26.62;47.73
76102;SHT30;64830;46.910;6.354;2023-06-22T14:25:39;26.73;46.81
76102;SHT30;64830;46.910;6.354;2023-06-22T14:28:04;26.79;46.48
76102;SHT30;64830;46.910;6.354;2023-06-22T14:30:30;26.64;45.58
76102;SHT30;64830;46.910;6.354;2023-06-22T14:32:55;26.56;45.81
76102;SHT30;64830;46.910;6.354;2023-06-22T14:35:20;26.56;46.58
76102;SHT30;64830;46.910;6.354;2023-06-22T14:37:46;26.63;45.99
76102;SHT30;64830;46.910;6.354;2023-06-22T14:40:12;26.69;46.17
76102;SHT30;64830;46.910;6.354;2023-06-22T14:42:37;26.77;46.29
76102;SHT30;64830;46.910;6.354;2023-06-22T14:45:03;26.86;44.37
76102;SHT30;64830;46.910;6.354;2023-06-22T14:47:29;26.76;42.44
76102;SHT30;64830;46.910;6.354;2023-06-22T14:49:54;26.48;42.91
76102;SHT30;64830;46.910;6.354;2023-06-22T14:52:20;26.28;43.02
76102;SHT30;64830;46.910;6.354;2023-06-22T14:54:45;26.18;43.34
76102;SHT30;64830;46.910;6.354;2023-06-22T14:57:11;26.20;44.08
76102;SHT30;64830;46.910;6.354;2023-06-22T14:59:36;26.17;44.57
76102;SHT30;64830;46.910;6.354;2023-06-22T15:02:02;26.13;44.32
76102;SHT30;64830;46.910;6.354;2023-06-22T15:04:27;26.07;44.58
76102;SHT30;64830;46.910;6.354;2023-06-22T15:06:57;26.04;45.19
76102;SHT30;64830;46.910;6.354;2023-06-22T15:09:22;26.04;45.51
76102;SHT30;64830;46.910;6.354;2023-06-22T15:11:47;25.97;45.20
76102;SHT30;64830;46.910;6.354;2023-06-22T15:14:13;25.93;45.32
76102;SHT30;64830;46.910;6.354;2023-06-22T15:16:39;25.83;45.76
76102;SHT30;64830;46.910;6.354;2023-06-22T15:19:04;25.74;46.04
76102;SHT30;64830;46.910;6.354;2023-06-22T15:21:30;25.58;46.06
76102;SHT30;64830;46.910;6.354;2023-06-22T15:23:55;25.32;46.79
76102;SHT30;64830;46.910;6.354;2023-06-22T15:26:21;25.12;47.45
76102;SHT30;64830;46.910;6.354;2023-06-22T15:28:46;24.97;48.14
76102;SHT30;64830;46.910;6.354;2023-06-22T15:31:11;24.86;48.19
76102;SHT30;64830;46.910;6.354;2023-06-22T15:33:37;24.74;48.39
76102;SHT30;64830;46.910;6.354;2023-06-22T15:36:03;24.62;47.53